Time,TemperatureF,DewpointF,PressureIn,WindDirection,WindDirectionDegrees,WindSpeedMPH,WindSpeedGustMPH,Humidity,HourlyPrecipIn,Conditions,Clouds,dailyrainin,SolarRadiationWatts/m^2,SoftwareType,DateUTC
2013-09-21 00:01:00,73.0,61.9,29.66,South,189,1.5,2.3,68,0.00,BKN,,0.00,0.0,WeatherDisplay:10.37,2013-09-21 04:01:00,
2013-09-21 00:06:00,72.9,62.1,29.66,SSE,148,0.9,4.1,69,0.00,OVC,BKN,0.00,0.0,WeatherDisplay:10.37,2013-09-21 04:06:00,
2013-09-21 00:11:00,72.9,62.1,29.66,South,171,0.4,2.3,69,0.00,OVC,BKN,0.00,0.0,WeatherDisplay:10.37,2013-09-21 04:11:00,
2013-09-21 00:16:00,72.7,61.9,29.66,SSE,153,0.5,3.5,69,0.00,OVC,BKN,0.00,0.0,WeatherDisplay:10.37,2013-09-21 04:16:00,
2013-09-21 00:21:00,72.7,62.3,29.66,South,188,0.9,3.5,70,0.00,OVC,BKN,0.00,0.0,WeatherDisplay:10.37,2013-09-21 04:21:00,
2013-09-21 00:27:00,72.7,62.3,29.66,South,187,1.8,6.9,70,0.00,OVC,BKN,0.00,0.0,WeatherDisplay:10.37,2013-09-21 04:27:00,
2013-09-21 00:32:00,72.3,62.0,29.66,South,176,1.6,3.5,70,0.00,OVC,BKN,0.00,0.0,WeatherDisplay:10.37,2013-09-21 04:32:00,
2013-09-21 00:37:00,72.3,62.0,29.66,South,182,1.5,4.6,70,0.00,OVC,BKN,0.00,0.0,WeatherDisplay:10.37,2013-09-21 04:37:00,
2013-09-21 00:42:00,72.3,62.0,29.66,SSE,166,1.7,4.6,70,0.00,OVC,BKN,0.00,0.0,WeatherDisplay:10.37,2013-09-21 04:42:00,
2013-09-21 00:47:00,72.5,62.2,29.66,East,85,1.1,2.3,70,0.00,OVC,BKN,0.00,0.0,WeatherDisplay:10.37,2013-09-21 04:47:00,
2013-09-21 00:52:00,72.7,62.3,29.66,South,189,1.3,4.6,70,0.00,OVC,BKN,0.00,0.0,WeatherDisplay:10.37,2013-09-21 04:52:00,
2013-09-21 00:57:00,72.7,62.3,29.66,SSE,154,0.4,3.5,70,0.00,OVC,BKN,0.00,0.0,WeatherDisplay:10.37,2013-09-21 04:57:00,
2013-09-21 01:02:00,72.3,62.0,29.66,SSE,165,0.5,1.1,70,0.00,OVC,BKN,0.00,0.0,WeatherDisplay:10.37,2013-09-21 05:02:00,
2013-09-21 01:07:00,72.5,62.6,29.66,SSE,150,0.7,2.3,71,0.00,OVC,BKN,0.00,0.0,WeatherDisplay:10.37,2013-09-21 05:07:00,
2013-09-21 01:12:00,72.5,62.6,29.66,SSE,159,0.6,2.3,71,0.00,OVC,BKN,0.00,0.0,WeatherDisplay:10.37,2013-09-21 05:12:00,
2013-09-21 01:17:00,72.5,63.0,29.65,SSE,160,0.9,2.3,72,0.00,OVC,BKN,0.00,0.0,WeatherDisplay:10.37,2013-09-21 05:17:00,
2013-09-21 01:22:00,72.7,62.7,29.65,SSW,196,0.7,2.5,71,0.00,OVC,BKN,0.00,0.0,WeatherDisplay:10.37,2013-09-21 05:22:00,
2013-09-21 01:27:00,72.9,62.9,29.65,South,169,0.7,2.3,71,0.00,OVC,BKN,0.00,0.0,WeatherDisplay:10.37,2013-09-21 05:27:00,
2013-09-21 01:32:00,72.9,62.5,29.65,SSE,162,1.7,4.6,70,0.00,OVC,BKN,0.00,0.0,WeatherDisplay:10.37,2013-09-21 05:32:00,
2013-09-21 01:37:00,73.0,63.1,29.65,SSE,161,2.2,6.9,71,0.00,OVC,BKN,0.00,0.0,WeatherDisplay:10.37,2013-09-21 05:37:00,
2013-09-21 01:42:00,72.9,62.9,29.65,SE,138,0.7,3.5,71,0.00,OVC,BKN,0.00,0.0,WeatherDisplay:10.37,2013-09-21 05:42:00,
2013-09-21 01:47:00,72.9,62.9,29.64,SSE,162,0.8,2.3,71,0.00,OVC,BKN,0.00,0.0,WeatherDisplay:10.37,2013-09-21 05:47:00,
2013-09-21 01:52:00,72.5,63.0,29.64,SE,130,0.3,1.1,72,0.00,OVC,BKN,0.00,0.0,WeatherDisplay:10.37,2013-09-21 05:52:00,
2013-09-21 01:57:00,72.7,63.1,29.65,SSE,158,0.3,2.3,72,0.00,OVC,BKN,0.00,0.0,WeatherDisplay:10.37,2013-09-21 05:57:00,
2013-09-21 02:02:00,72.3,62.8,29.64,SE,145,2.4,6.9,72,0.00,OVC,BKN,0.00,0.0,WeatherDisplay:10.37,2013-09-21 06:02:00,
2013-09-21 02:07:00,72.1,62.6,29.64,SE,140,2.8,5.8,72,0.00,OVC,BKN,0.00,0.0,WeatherDisplay:10.37,2013-09-21 06:07:00,
2013-09-21 02:12:00,72.1,63.0,29.64,SSE,148,0.4,2.3,73,0.00,OVC,BKN,0.00,0.0,WeatherDisplay:10.37,2013-09-21 06:12:00,
2013-09-21 02:17:00,72.0,62.8,29.64,SE,141,1.4,2.3,73,0.00,OVC,BKN,0.00,0.0,WeatherDisplay:10.37,2013-09-21 06:17:00,
2013-09-21 02:22:00,72.1,63.0,29.65,South,185,1.1,4.6,73,0.00,OVC,BKN,0.00,0.0,WeatherDisplay:10.37,2013-09-21 06:22:00,
2013-09-21 02:27:00,72.3,63.2,29.64,South,169,0.0,4.6,73,0.00,OVC,BKN,0.00,0.0,WeatherDisplay:10.37,2013-09-21 06:27:00,
2013-09-21 02:32:00,72.7,63.5,29.64,South,179,0.5,2.3,73,0.00,OVC,BKN,0.00,0.0,WeatherDisplay:10.37,2013-09-21 06:32:00,
2013-09-21 02:37:00,72.7,63.1,29.64,South,191,0.4,1.1,72,0.00,OVC,BKN,0.00,0.0,WeatherDisplay:10.37,2013-09-21 06:37:00,
2013-09-21 02:42:00,72.7,63.1,29.64,SSE,168,0.9,4.6,72,0.00,OVC,BKN,0.00,0.0,WeatherDisplay:10.37,2013-09-21 06:42:00,
2013-09-21 02:47:00,72.7,63.1,29.64,SE,143,0.3,2.3,72,0.00,OVC,BKN,0.00,0.0,WeatherDisplay:10.37,2013-09-21 06:47:00,
2013-09-21 02:52:00,72.9,63.3,29.63,SSE,152,0.2,2.3,72,0.00,OVC,BKN,0.00,0.0,WeatherDisplay:10.37,2013-09-21 06:52:00,
2013-09-21 02:57:00,72.9,63.3,29.64,SSE,156,0.0,0.0,72,0.00,OVC,BKN,0.00,0.0,WeatherDisplay:10.37,2013-09-21 06:57:00,
2013-09-21 03:02:00,72.5,63.4,29.63,South,176,0.2,1.1,73,0.00,-RA,BKN,0.00,0.0,WeatherDisplay:10.37,2013-09-21 07:02:00,
2013-09-21 03:07:00,72.5,63.4,29.63,South,187,0.0,0.0,73,0.00,-RA,BKN,0.00,0.0,WeatherDisplay:10.37,2013-09-21 07:07:00,
2013-09-21 03:12:00,72.3,63.6,29.63,South,185,0.5,2.6,74,0.00,-RA,BKN,0.00,0.0,WeatherDisplay:10.37,2013-09-21 07:12:00,
2013-09-21 03:17:00,72.1,63.4,29.63,SSW,199,0.4,2.3,74,0.00,-RA,BKN,0.00,0.0,WeatherDisplay:10.37,2013-09-21 07:17:00,
2013-09-21 03:22:00,72.1,63.8,29.63,South,187,0.3,1.8,75,0.00,-RA,BKN,0.00,0.0,WeatherDisplay:10.37,2013-09-21 07:22:00,
2013-09-21 03:27:00,72.0,63.6,29.63,South,182,0.5,2.3,75,0.00,-RA,BKN,0.00,0.0,WeatherDisplay:10.37,2013-09-21 07:27:00,
2013-09-21 03:32:00,71.8,63.4,29.62,South,187,0.6,3.5,75,0.00,-RA,BKN,0.00,0.0,WeatherDisplay:10.37,2013-09-21 07:32:00,
2013-09-21 03:37:00,71.6,63.3,29.63,SSW,201,1.5,5.8,75,0.00,-RA,BKN,0.00,0.0,WeatherDisplay:10.37,2013-09-21 07:37:00,
2013-09-21 03:42:00,71.8,63.4,29.62,South,176,0.6,2.3,75,0.00,-RA,BKN,0.00,0.0,WeatherDisplay:10.37,2013-09-21 07:42:00,
2013-09-21 03:47:00,72.0,63.6,29.62,South,184,0.0,0.0,75,0.00,-RA,BKN,0.00,0.0,WeatherDisplay:10.37,2013-09-21 07:47:00,
2013-09-21 03:52:00,71.8,63.4,29.62,SE,127,0.1,2.3,75,0.00,-RA,BKN,0.00,0.0,WeatherDisplay:10.37,2013-09-21 07:52:00,
2013-09-21 03:57:00,71.6,63.6,29.62,SE,134,0.7,2.3,76,0.00,-RA,BKN,0.00,0.0,WeatherDisplay:10.37,2013-09-21 07:57:00,
2013-09-21 04:02:00,71.4,63.5,29.62,SE,129,0.0,1.1,76,0.00,OVC,BKN,0.00,0.0,WeatherDisplay:10.37,2013-09-21 08:02:00,
2013-09-21 04:07:00,71.2,63.7,29.61,SE,139,0.5,2.3,77,0.00,OVC,BKN,0.00,0.0,WeatherDisplay:10.37,2013-09-21 08:07:00,
2013-09-21 04:12:00,70.9,63.3,29.62,SE,134,0.3,1.1,77,0.00,OVC,BKN,0.00,0.0,WeatherDisplay:10.37,2013-09-21 08:12:00,
2013-09-21 04:17:00,71.1,63.9,29.62,SE,134,0.0,0.0,78,0.00,OVC,BKN,0.00,0.0,WeatherDisplay:10.37,2013-09-21 08:17:00,
2013-09-21 04:22:00,70.7,63.5,29.62,SE,134,0.0,0.0,78,0.00,OVC,BKN,0.00,0.0,WeatherDisplay:10.37,2013-09-21 08:22:00,
2013-09-21 04:27:00,70.5,63.3,29.61,SE,138,0.5,2.4,78,0.00,OVC,BKN,0.00,0.0,WeatherDisplay:10.37,2013-09-21 08:27:00,
2013-09-21 04:32:00,70.3,63.5,29.61,SE,140,0.1,1.1,79,0.00,OVC,BKN,0.00,0.0,WeatherDisplay:10.37,2013-09-21 08:32:00,
2013-09-21 04:37:00,70.3,63.5,29.61,SSE,149,0.0,1.1,79,0.00,OVC,BKN,0.00,0.0,WeatherDisplay:10.37,2013-09-21 08:37:00,
2013-09-21 04:42:00,70.3,63.5,29.61,SE,130,0.0,0.0,79,0.00,OVC,BKN,0.00,0.0,WeatherDisplay:10.37,2013-09-21 08:42:00,
2013-09-21 04:47:00,70.3,63.5,29.61,SE,129,0.0,0.0,79,0.00, +RA,BKN,0.00,0.0,WeatherDisplay:10.37,2013-09-21 08:47:00,
2013-09-21 04:52:00,70.2,63.3,29.61,SE,142,0.0,1.1,79,0.00, +RA,BKN,0.00,0.0,WeatherDisplay:10.37,2013-09-21 08:52:00,
2013-09-21 04:57:00,70.0,63.2,29.61,SE,139,0.8,2.3,79,0.00, +RA,BKN,0.00,0.0,WeatherDisplay:10.37,2013-09-21 08:57:00,
2013-09-21 05:02:00,69.8,63.0,29.61,ESE,122,0.7,2.3,79,0.00,OVC,BKN,0.00,0.0,WeatherDisplay:10.37,2013-09-21 09:02:00,
2013-09-21 05:07:00,69.8,63.0,29.61,SE,132,0.6,2.3,79,0.00,OVC,BKN,0.00,0.0,WeatherDisplay:10.37,2013-09-21 09:07:00,
2013-09-21 05:12:00,69.8,63.0,29.61,ESE,107,1.2,2.6,79,0.00,OVC,BKN,0.00,0.0,WeatherDisplay:10.37,2013-09-21 09:12:00,
2013-09-21 05:17:00,70.0,63.2,29.61,SE,128,0.4,1.8,79,0.00,OVC,BKN,0.00,0.0,WeatherDisplay:10.37,2013-09-21 09:17:00,
2013-09-21 05:22:00,70.0,63.2,29.60,SE,137,0.2,2.3,79,0.00,OVC,BKN,0.00,0.0,WeatherDisplay:10.37,2013-09-21 09:22:00,
2013-09-21 05:27:00,69.8,63.0,29.60,SE,143,0.7,2.3,79,0.00,OVC,BKN,0.00,0.0,WeatherDisplay:10.37,2013-09-21 09:27:00,
2013-09-21 05:32:00,69.6,63.2,29.59,SE,140,1.1,2.3,80,0.00,OVC,BKN,0.00,0.0,WeatherDisplay:10.37,2013-09-21 09:32:00,
2013-09-21 05:37:00,69.6,63.2,29.59,ESE,119,1.1,2.6,80,0.00,OVC,BKN,0.00,0.0,WeatherDisplay:10.37,2013-09-21 09:37:00,
2013-09-21 05:42:00,69.6,63.2,29.60,SE,141,0.2,2.3,80,0.00,OVC,BKN,0.00,0.0,WeatherDisplay:10.37,2013-09-21 09:42:00,
2013-09-21 05:47:00,69.6,63.2,29.59,SE,145,0.0,1.1,80,0.00,OVC,BKN,0.00,0.0,WeatherDisplay:10.37,2013-09-21 09:47:00,
2013-09-21 05:52:00,69.6,63.2,29.59,SSE,148,0.3,1.1,80,0.00,OVC,BKN,0.00,0.0,WeatherDisplay:10.37,2013-09-21 09:52:00,
2013-09-21 05:57:00,69.6,63.5,29.60,SSE,163,0.6,2.3,81,0.00,OVC,BKN,0.00,0.0,WeatherDisplay:10.37,2013-09-21 09:57:00,
2013-09-21 06:02:00,69.6,63.2,29.59,SSE,159,0.8,2.3,80,0.00,OVC,BKN,0.00,0.0,WeatherDisplay:10.37,2013-09-21 10:02:00,
2013-09-21 06:07:00,70.0,63.5,29.59,South,188,0.4,2.9,80,0.00,OVC,BKN,0.00,0.0,WeatherDisplay:10.37,2013-09-21 10:07:00,
2013-09-21 06:12:00,70.3,63.9,29.59,SSE,152,0.2,1.1,80,0.00,OVC,BKN,0.00,0.0,WeatherDisplay:10.37,2013-09-21 10:12:00,
2013-09-21 06:17:00,70.3,63.9,29.59,South,176,0.0,1.1,80,0.00,OVC,BKN,0.00,0.0,WeatherDisplay:10.37,2013-09-21 10:17:00,
2013-09-21 06:22:00,70.3,63.9,29.59,SSW,193,0.7,2.3,80,0.00,OVC,BKN,0.00,0.0,WeatherDisplay:10.37,2013-09-21 10:22:00,
2013-09-21 06:27:00,70.5,64.0,29.60,WNW,294,0.1,1.1,80,0.00,OVC,BKN,0.00,0.0,WeatherDisplay:10.37,2013-09-21 10:27:00,
2013-09-21 06:32:00,70.7,63.9,29.59,South,183,0.0,0.0,79,0.00,OVC,BKN,0.00,0.0,WeatherDisplay:10.37,2013-09-21 10:32:00,
2013-09-21 06:38:00,70.5,63.7,29.59,SSE,162,0.4,1.1,79,0.00,OVC,BKN,0.00,0.0,WeatherDisplay:10.37,2013-09-21 10:38:00,
2013-09-21 06:43:00,70.9,64.0,29.60,SSW,207,0.0,0.0,79,0.00,OVC,BKN,0.00,0.0,WeatherDisplay:10.37,2013-09-21 10:43:00,
2013-09-21 06:48:00,70.5,63.7,29.59,South,189,0.5,2.3,79,0.00,OVC,BKN,0.00,0.0,WeatherDisplay:10.37,2013-09-21 10:48:00,
2013-09-21 06:53:00,70.7,63.9,29.59,South,191,0.2,1.1,79,0.00,OVC,BKN,0.00,0.0,WeatherDisplay:10.37,2013-09-21 10:53:00,
2013-09-21 06:58:00,70.9,64.0,29.59,SSE,160,0.0,1.1,79,0.00,OVC,BKN,0.00,0.0,WeatherDisplay:10.37,2013-09-21 10:58:00,
2013-09-21 07:03:00,70.5,64.0,29.59,SSE,147,1.4,2.3,80,0.00,OVC,BKN,0.00,0.0,WeatherDisplay:10.37,2013-09-21 11:03:00,
2013-09-21 07:08:00,70.5,64.0,29.59,SE,128,0.0,1.1,80,0.00,OVC,BKN,0.00,0.0,WeatherDisplay:10.37,2013-09-21 11:08:00,
2013-09-21 07:13:00,70.5,64.0,29.59,SE,130,0.1,1.1,80,0.00,OVC,BKN,0.00,0.0,WeatherDisplay:10.37,2013-09-21 11:13:00,
2013-09-21 07:18:00,70.3,64.2,29.59,SE,136,0.6,1.1,81,0.00, +RA,BKN,0.00,0.0,WeatherDisplay:10.37,2013-09-21 11:18:00,
2013-09-21 07:23:00,70.0,64.2,29.59,SE,133,1.0,2.3,82,0.01, +RA,BKN,0.01,0.0,WeatherDisplay:10.37,2013-09-21 11:23:00,
2013-09-21 07:28:00,69.8,64.4,29.58,SE,131,0.0,0.0,83,0.01, +RA,BKN,0.02,0.0,WeatherDisplay:10.37,2013-09-21 11:28:00,
2013-09-21 07:33:00,69.4,64.4,29.58,SE,130,0.3,1.1,84,0.02, +RA,BKN,0.02,0.0,WeatherDisplay:10.37,2013-09-21 11:33:00,
2013-09-21 07:38:00,69.6,64.9,29.58,ESE,106,0.0,1.1,85,0.02, +RA,BKN,0.02,0.0,WeatherDisplay:10.37,2013-09-21 11:38:00,
2013-09-21 07:45:00,69.4,65.1,29.58,NNE,26,0.0,0.0,86,0.02, +RA,BKN,0.02,0.0,WeatherDisplay:10.37,2013-09-21 11:45:00,
2013-09-21 07:50:00,69.4,65.4,29.58,NE,38,0.0,0.0,87,0.02,OVC,BKN,0.02,0.0,WeatherDisplay:10.37,2013-09-21 11:50:00,
2013-09-21 07:55:00,69.4,65.4,29.58,NE,38,0.0,0.0,87,0.02,OVC,BKN,0.02,0.0,WeatherDisplay:10.37,2013-09-21 11:55:00,
2013-09-21 08:00:00,69.4,65.4,29.58,East,98,0.0,0.0,87,0.02,OVC,BKN,0.02,0.2,WeatherDisplay:10.37,2013-09-21 12:00:00,
2013-09-21 08:05:00,69.4,65.4,29.58,East,98,0.0,0.0,87,0.02, +RA,BKN,0.02,0.7,WeatherDisplay:10.37,2013-09-21 12:05:00,
2013-09-21 08:10:00,69.3,65.2,29.58,SE,145,0.1,1.1,87,0.02, +RA,BKN,0.02,0.8,WeatherDisplay:10.37,2013-09-21 12:10:00,
2013-09-21 08:15:00,68.5,64.8,29.59,WNW,302,3.2,6.0,88,0.02, +RA,BKN,0.02,0.2,WeatherDisplay:10.37,2013-09-21 12:15:00,
2013-09-21 08:20:00,67.5,64.1,29.60,NNW,331,8.1,14.1,89,0.02, +RA,BKN,0.02,0.2,WeatherDisplay:10.37,2013-09-21 12:20:00,
2013-09-21 08:25:00,66.7,63.4,29.60,NW,304,8.2,15.0,89,0.01, +RA,BKN,0.02,1.1,WeatherDisplay:10.37,2013-09-21 12:25:00,
2013-09-21 08:30:00,66.0,62.7,29.59,WSW,238,6.9,11.5,89,0.00, +RA,BKN,0.02,0.9,WeatherDisplay:10.37,2013-09-21 12:30:00,
2013-09-21 08:35:00,65.5,62.2,29.59,NW,321,5.1,6.9,89,0.00, +RA,BKN,0.02,2.5,WeatherDisplay:10.37,2013-09-21 12:35:00,
2013-09-21 08:40:00,65.5,62.2,29.59,North,8,1.8,5.8,89,0.00, +RA,BKN,0.02,2.3,WeatherDisplay:10.37,2013-09-21 12:40:00,
2013-09-21 08:45:00,65.3,62.0,29.59,NNE,15,0.2,1.1,89,0.00, +RA,BKN,0.02,4.4,WeatherDisplay:10.37,2013-09-21 12:45:00,
2013-09-21 08:50:00,65.5,62.5,29.59,ENE,59,0.0,1.8,90,0.00,OVC,BKN,0.02,2.9,WeatherDisplay:10.37,2013-09-21 12:50:00,
2013-09-21 08:55:00,65.1,62.1,29.59,NW,308,1.9,3.5,90,0.00,OVC,BKN,0.02,2.2,WeatherDisplay:10.37,2013-09-21 12:55:00,
2013-09-21 09:00:00,65.1,62.4,29.59,NE,43,0.1,1.4,91,0.00,OVC,BKN,0.02,4.0,WeatherDisplay:10.37,2013-09-21 13:00:00,
2013-09-21 09:05:00,64.8,61.8,29.59,NE,34,2.4,5.4,90,0.01, +RA,BKN,0.03,8.1,WeatherDisplay:10.37,2013-09-21 13:05:00,
2013-09-21 09:10:00,64.8,61.8,29.59,NW,318,0.2,3.3,90,0.01, +RA,BKN,0.03,8.6,WeatherDisplay:10.37,2013-09-21 13:10:00,
2013-09-21 09:15:00,64.9,61.9,29.59,NW,326,0.0,1.1,90,0.01, +RA,BKN,0.03,4.2,WeatherDisplay:10.37,2013-09-21 13:15:00,
2013-09-21 09:20:00,64.9,62.2,29.59,NNW,329,0.0,0.0,91,0.01,OVC,BKN,0.03,5.3,WeatherDisplay:10.37,2013-09-21 13:20:00,
2013-09-21 09:25:00,64.9,61.9,29.59,NE,36,0.0,0.0,90,0.02,RA,BKN,0.04,7.1,WeatherDisplay:10.37,2013-09-21 13:25:00,
2013-09-21 09:30:00,64.8,61.8,29.59,NE,36,0.0,0.0,90,0.02,RA,BKN,0.04,9.8,WeatherDisplay:10.37,2013-09-21 13:30:00,
2013-09-21 09:35:00,64.9,61.9,29.59,NE,36,0.0,0.0,90,0.02, +RA,BKN,0.04,10.4,WeatherDisplay:10.37,2013-09-21 13:35:00,
2013-09-21 09:40:00,64.9,61.9,29.59,NE,36,0.0,0.0,90,0.02, +RA,BKN,0.04,8.1,WeatherDisplay:10.37,2013-09-21 13:40:00,
2013-09-21 09:45:00,64.9,61.9,29.58,NE,36,0.0,0.0,90,0.03, +RA,BKN,0.05,9.7,WeatherDisplay:10.37,2013-09-21 13:45:00,
2013-09-21 09:50:00,64.6,61.6,29.58,NNE,30,2.1,3.5,90,0.03, +RA,BKN,0.05,11.9,WeatherDisplay:10.37,2013-09-21 13:50:00,
2013-09-21 09:55:00,64.2,61.2,29.57,NE,41,2.5,2.5,90,0.03, +RA,BKN,0.06,17.8,WeatherDisplay:10.37,2013-09-21 13:55:00,
2013-09-21 10:00:00,64.4,61.7,29.57,NE,43,0.0,1.1,91,0.06, +RA,BKN,0.09,17.3,WeatherDisplay:10.37,2013-09-21 14:00:00,
2013-09-21 10:05:00,64.6,61.9,29.58,SSE,162,0.0,0.0,91,0.07,RA,BKN,0.11,17.9,WeatherDisplay:10.37,2013-09-21 14:05:00,
2013-09-21 10:10:00,64.6,61.9,29.58,WNW,293,0.1,1.1,91,0.10,RA,BKN,0.13,10.4,WeatherDisplay:10.37,2013-09-21 14:10:00,
2013-09-21 10:15:00,64.2,61.8,29.59,NW,322,2.1,3.5,92,0.11,RA,BKN,0.14,8.6,WeatherDisplay:10.37,2013-09-21 14:15:00,
2013-09-21 10:20:00,64.0,61.7,29.60,WNW,296,2.5,3.5,92,0.12,RA,BKN,0.15,7.3,WeatherDisplay:10.37,2013-09-21 14:20:00,
2013-09-21 10:25:00,64.2,62.2,29.59,NW,322,0.7,4.0,93,0.11,RA,BKN,0.15,15.1,WeatherDisplay:10.37,2013-09-21 14:25:00,
2013-09-21 10:30:00,64.0,62.0,29.60,WNW,284,2.5,5.8,93,0.12,RA,BKN,0.16,13.3,WeatherDisplay:10.37,2013-09-21 14:30:00,
2013-09-21 10:35:00,63.9,61.8,29.59,NW,317,4.5,8.1,93,0.13,RA,BKN,0.17,21.7,WeatherDisplay:10.37,2013-09-21 14:35:00,
2013-09-21 10:40:00,63.7,61.6,29.60,WNW,296,1.2,2.6,93,0.17,RA,BKN,0.21,18.1,WeatherDisplay:10.37,2013-09-21 14:40:00,
2013-09-21 10:45:00,63.7,61.9,29.61,WSW,246,0.2,3.5,94,0.16,RA,BKN,0.22,14.3,WeatherDisplay:10.37,2013-09-21 14:45:00,
2013-09-21 10:50:00,63.7,61.9,29.61,NNW,329,0.5,4.6,94,0.22,RA,BKN,0.27,35.5,WeatherDisplay:10.37,2013-09-21 14:50:00,
2013-09-21 10:55:00,63.7,61.9,29.61,NW,312,4.2,6.9,94,0.26,RA,BKN,0.31,43.5,WeatherDisplay:10.37,2013-09-21 14:55:00,
2013-09-21 11:00:00,63.3,61.6,29.59,WSW,258,2.4,5.8,94,0.25,RA,BKN,0.33,48.7,WeatherDisplay:10.37,2013-09-21 15:00:00,
2013-09-21 11:05:00,63.3,61.6,29.59,West,278,1.5,2.3,94,0.25,RA,BKN,0.35,65.8,WeatherDisplay:10.37,2013-09-21 15:05:00,
2013-09-21 11:10:00,63.7,61.9,29.58,NNW,333,0.0,0.0,94,0.23,RA,BKN,0.36,69.0,WeatherDisplay:10.37,2013-09-21 15:10:00,
2013-09-21 11:15:00,63.7,61.9,29.58,NW,308,0.4,1.5,94,0.24,RA,BKN,0.37,48.9,WeatherDisplay:10.37,2013-09-21 15:15:00,
2013-09-21 11:20:00,63.7,61.9,29.58,WNW,298,1.4,2.6,94,0.22,RA,BKN,0.37,54.9,WeatherDisplay:10.37,2013-09-21 15:20:00,
2013-09-21 11:25:00,63.7,61.9,29.59,South,176,0.0,0.0,94,0.22,OVC,BKN,0.37,50.8,WeatherDisplay:10.37,2013-09-21 15:25:00,
2013-09-21 11:30:00,63.7,61.9,29.58,NW,320,3.6,4.6,94,0.22,OVC,BKN,0.37,59.8,WeatherDisplay:10.37,2013-09-21 15:30:00,
2013-09-21 11:35:00,63.3,61.6,29.58,NW,326,4.5,6.9,94,0.22,RA,BKN,0.39,52.7,WeatherDisplay:10.37,2013-09-21 15:35:00,
2013-09-21 11:40:00,63.5,61.7,29.59,WNW,300,0.9,2.8,94,0.20,RA,BKN,0.40,51.3,WeatherDisplay:10.37,2013-09-21 15:40:00,
2013-09-21 11:45:00,63.7,61.9,29.58,West,281,2.6,5.8,94,0.20,RA,BKN,0.41,64.8,WeatherDisplay:10.37,2013-09-21 15:45:00,
2013-09-21 11:50:00,63.5,61.7,29.59,WNW,291,1.5,4.6,94,0.16,RA,BKN,0.43,60.5,WeatherDisplay:10.37,2013-09-21 15:50:00,
2013-09-21 11:55:00,63.5,61.7,29.59,WNW,286,0.2,2.3,94,0.13,RA,BKN,0.44,74.5,WeatherDisplay:10.37,2013-09-21 15:55:00,
2013-09-21 12:00:00,63.7,61.9,29.58,WNW,298,0.3,3.5,94,0.12,RA,BKN,0.45,65.3,WeatherDisplay:10.37,2013-09-21 16:00:00,
2013-09-21 12:05:00,63.3,61.6,29.59,WNW,300,1.6,4.0,94,0.11,RA,BKN,0.46,79.8,WeatherDisplay:10.37,2013-09-21 16:05:00,
2013-09-21 12:10:00,63.3,61.6,29.59,West,279,1.1,4.6,94,0.11,RA,BKN,0.47,77.3,WeatherDisplay:10.37,2013-09-21 16:10:00,
2013-09-21 12:15:00,63.5,61.7,29.59,West,264,1.4,4.6,94,0.10,RA,BKN,0.47,87.3,WeatherDisplay:10.37,2013-09-21 16:15:00,
2013-09-21 12:20:00,63.3,61.6,29.58,NW,304,2.6,6.9,94,0.12,RA,BKN,0.49,102.0,WeatherDisplay:10.37,2013-09-21 16:20:00,
2013-09-21 12:25:00,63.7,61.9,29.59,WNW,285,1.9,5.8,94,0.12,RA,BKN,0.49,105.5,WeatherDisplay:10.37,2013-09-21 16:25:00,
2013-09-21 12:30:00,63.7,61.9,29.59,WSW,242,0.8,2.3,94,0.13,RA,BKN,0.50,124.4,WeatherDisplay:10.37,2013-09-21 16:30:00,
2013-09-21 12:35:00,63.3,61.3,29.59,WNW,284,1.8,6.9,93,0.12,RA,BKN,0.50,123.2,WeatherDisplay:10.37,2013-09-21 16:35:00,
2013-09-21 12:40:00,63.3,61.3,29.59,NW,316,1.9,3.5,93,0.11,RA,BKN,0.51,120.7,WeatherDisplay:10.37,2013-09-21 16:40:00,
2013-09-21 12:45:00,63.1,60.8,29.59,WNW,291,2.0,5.8,92,0.11,RA,BKN,0.52,88.7,WeatherDisplay:10.37,2013-09-21 16:45:00,
2013-09-21 12:50:00,63.1,61.1,29.59,West,269,3.1,6.9,93,0.10,RA,BKN,0.53,107.8,WeatherDisplay:10.37,2013-09-21 16:50:00,
2013-09-21 12:55:00,63.0,60.6,29.59,WNW,283,1.5,6.9,92,0.11,RA,BKN,0.55,93.6,WeatherDisplay:10.37,2013-09-21 16:55:00,
2013-09-21 13:00:00,62.8,60.4,29.58,WNW,301,2.7,3.5,92,0.10,RA,BKN,0.55,115.3,WeatherDisplay:10.37,2013-09-21 17:00:00,
2013-09-21 13:05:00,62.8,60.4,29.59,WNW,288,2.1,5.8,92,0.10,-RA,BKN,0.56,116.1,WeatherDisplay:10.37,2013-09-21 17:05:00,
2013-09-21 13:10:00,63.0,60.6,29.58,NW,314,1.2,3.5,92,0.11,-RA,BKN,0.57,150.6,WeatherDisplay:10.37,2013-09-21 17:10:00,
2013-09-21 13:15:00,63.1,60.8,29.58,WNW,294,2.2,4.8,92,0.10,-RA,BKN,0.57,147.4,WeatherDisplay:10.37,2013-09-21 17:15:00,
2013-09-21 13:20:00,63.1,61.1,29.58,NW,308,0.9,3.5,93,0.08,-RA,BKN,0.57,135.5,WeatherDisplay:10.37,2013-09-21 17:20:00,
2013-09-21 13:25:00,63.3,61.0,29.58,WNW,285,0.0,0.0,92,0.09,-RA,BKN,0.58,92.8,WeatherDisplay:10.37,2013-09-21 17:25:00,
2013-09-21 13:31:00,63.7,61.3,29.58,South,185,0.0,0.0,92,0.10,-RA,BKN,0.60,121.3,WeatherDisplay:10.37,2013-09-21 17:31:00,
2013-09-21 13:36:00,63.7,61.6,29.58,WNW,287,0.0,0.0,93,0.11,-RA,BKN,0.61,156.2,WeatherDisplay:10.37,2013-09-21 17:36:00,
2013-09-21 13:41:00,63.5,61.1,29.58,South,185,0.1,1.1,92,0.11,-RA,BKN,0.62,132.3,WeatherDisplay:10.37,2013-09-21 17:41:00,
2013-09-21 13:46:00,63.7,61.6,29.58,South,188,0.2,1.1,93,0.10,-RA,BKN,0.62,141.6,WeatherDisplay:10.37,2013-09-21 17:46:00,
2013-09-21 13:51:00,63.5,61.1,29.58,SSE,164,0.0,0.0,92,0.10,-RA,BKN,0.63,148.3,WeatherDisplay:10.37,2013-09-21 17:51:00,
2013-09-21 13:56:00,63.5,61.4,29.58,South,182,0.5,2.3,93,0.09,-RA,BKN,0.63,163.9,WeatherDisplay:10.37,2013-09-21 17:56:00,
2013-09-21 14:01:00,63.3,61.3,29.58,South,187,0.1,1.1,93,0.09,-RA,BKN,0.64,163.9,WeatherDisplay:10.37,2013-09-21 18:01:00,
2013-09-21 14:06:00,63.7,61.9,29.58,South,187,0.2,1.1,94,0.09,-RA,BKN,0.65,179.4,WeatherDisplay:10.37,2013-09-21 18:06:00,
2013-09-21 14:11:00,63.7,61.9,29.57,South,186,0.6,1.5,94,0.08,-RA,BKN,0.65,166.5,WeatherDisplay:10.37,2013-09-21 18:11:00,
2013-09-21 14:16:00,64.0,62.3,29.57,SSW,201,0.0,1.1,94,0.08,-RA,BKN,0.65,192.1,WeatherDisplay:10.37,2013-09-21 18:16:00,
2013-09-21 14:21:00,63.7,61.9,29.57,SSW,195,0.2,2.3,94,0.09,-RA,BKN,0.66,157.2,WeatherDisplay:10.37,2013-09-21 18:21:00,
2013-09-21 14:26:00,63.9,62.1,29.58,SW,230,0.0,0.0,94,0.08,-RA,BKN,0.66,163.3,WeatherDisplay:10.37,2013-09-21 18:26:00,
2013-09-21 14:31:00,63.7,61.9,29.58,South,182,0.8,2.3,94,0.08,-RA,BKN,0.67,134.7,WeatherDisplay:10.37,2013-09-21 18:31:00,
2013-09-21 14:36:00,63.5,61.7,29.57,SSW,195,0.9,3.5,94,0.06,-RA,BKN,0.67,131.9,WeatherDisplay:10.37,2013-09-21 18:36:00,
2013-09-21 14:41:00,63.3,61.6,29.57,SSW,192,0.6,2.3,94,0.06,-RA,BKN,0.68,131.5,WeatherDisplay:10.37,2013-09-21 18:41:00,
2013-09-21 14:46:00,63.1,61.1,29.58,South,183,0.3,1.1,93,0.07,-RA,BKN,0.69,131.0,WeatherDisplay:10.37,2013-09-21 18:46:00,
2013-09-21 14:51:00,63.3,61.6,29.58,South,179,0.0,0.0,94,0.06,-RA,BKN,0.69,142.0,WeatherDisplay:10.37,2013-09-21 18:51:00,
2013-09-21 14:56:00,63.7,61.9,29.58,South,182,0.1,1.1,94,0.06,-RA,BKN,0.69,169.0,WeatherDisplay:10.37,2013-09-21 18:56:00,
2013-09-21 15:01:00,63.5,61.7,29.57,South,189,0.3,1.1,94,0.06,-RA,BKN,0.69,174.4,WeatherDisplay:10.37,2013-09-21 19:01:00,
2013-09-21 15:06:00,63.3,61.6,29.57,South,176,0.2,1.1,94,0.06,-RA,BKN,0.70,188.4,WeatherDisplay:10.37,2013-09-21 19:06:00,
2013-09-21 15:11:00,63.7,61.9,29.57,South,169,0.1,1.1,94,0.05,-RA,BKN,0.70,224.4,WeatherDisplay:10.37,2013-09-21 19:11:00,
2013-09-21 15:16:00,63.7,61.9,29.57,South,191,0.6,2.3,94,0.05,-RA,BKN,0.70,264.9,WeatherDisplay:10.37,2013-09-21 19:16:00,
2013-09-21 15:21:00,63.3,61.3,29.57,SSW,199,1.2,4.6,93,0.05,OVC,BKN,0.70,275.8,WeatherDisplay:10.37,2013-09-21 19:21:00,
2013-09-21 15:26:00,63.3,61.3,29.57,SE,145,0.7,2.3,93,0.04,OVC,BKN,0.70,230.7,WeatherDisplay:10.37,2013-09-21 19:26:00,
2013-09-21 15:31:00,63.9,61.8,29.57,South,191,0.0,1.1,93,0.04,RA,BKN,0.71,197.7,WeatherDisplay:10.37,2013-09-21 19:31:00,
2013-09-21 15:36:00,64.0,62.0,29.57,South,189,0.0,0.0,93,0.04,RA,BKN,0.71,160.1,WeatherDisplay:10.37,2013-09-21 19:36:00,
2013-09-21 15:41:00,63.7,61.3,29.56,SSE,150,0.5,2.3,92,0.04,OVC,BKN,0.71,136.1,WeatherDisplay:10.37,2013-09-21 19:41:00,
2013-09-21 15:46:00,63.7,61.3,29.56,South,189,0.1,1.1,92,0.03,OVC,BKN,0.71,131.4,WeatherDisplay:10.37,2013-09-21 19:46:00,
2013-09-21 15:51:00,63.9,61.8,29.56,South,184,0.1,1.1,93,0.02,OVC,BKN,0.71,113.8,WeatherDisplay:10.37,2013-09-21 19:51:00,
2013-09-21 15:56:00,63.7,61.6,29.56,South,187,0.3,1.4,93,0.02,OVC,BKN,0.71,103.4,WeatherDisplay:10.37,2013-09-21 19:56:00,
2013-09-21 16:01:00,63.7,61.6,29.56,South,189,0.9,2.3,93,0.02,OVC,BKN,0.71,94.2,WeatherDisplay:10.37,2013-09-21 20:01:00,
2013-09-21 16:06:00,63.5,61.4,29.56,SSW,197,0.2,1.1,93,0.01,-RA,BKN,0.72,85.3,WeatherDisplay:10.37,2013-09-21 20:06:00,
2013-09-21 16:11:00,63.3,61.0,29.55,SSE,167,0.1,2.3,92,0.02,-RA,BKN,0.72,78.7,WeatherDisplay:10.37,2013-09-21 20:11:00,
2013-09-21 16:16:00,63.3,61.3,29.55,South,182,0.6,2.3,93,0.03,-RA,BKN,0.73,69.0,WeatherDisplay:10.37,2013-09-21 20:16:00,
2013-09-21 16:21:00,63.3,61.3,29.56,South,184,0.0,0.0,93,0.03,-RA,BKN,0.73,68.0,WeatherDisplay:10.37,2013-09-21 20:21:00,
2013-09-21 16:26:00,63.3,61.3,29.56,SSE,148,0.0,1.1,93,0.03,-RA,BKN,0.73,64.9,WeatherDisplay:10.37,2013-09-21 20:26:00,
2013-09-21 16:31:00,63.1,61.1,29.55,SE,139,0.8,3.5,93,0.03,-RA,BKN,0.74,56.6,WeatherDisplay:10.37,2013-09-21 20:31:00,
2013-09-21 16:36:00,63.1,61.1,29.56,SE,143,0.0,0.0,93,0.04,-RA,BKN,0.75,55.7,WeatherDisplay:10.37,2013-09-21 20:36:00,
2013-09-21 16:41:00,63.1,61.1,29.56,South,173,0.0,0.0,93,0.04,-RA,BKN,0.75,54.8,WeatherDisplay:10.37,2013-09-21 20:41:00,
2013-09-21 16:46:00,63.0,60.6,29.56,South,182,0.2,1.3,92,0.05,-RA,BKN,0.76,53.9,WeatherDisplay:10.37,2013-09-21 20:46:00,
2013-09-21 16:51:00,62.8,60.4,29.56,South,187,0.0,1.1,92,0.06,-RA,BKN,0.77,50.0,WeatherDisplay:10.37,2013-09-21 20:51:00,
2013-09-21 16:56:00,63.0,60.9,29.56,South,189,0.1,1.1,93,0.06,-RA,BKN,0.77,49.1,WeatherDisplay:10.37,2013-09-21 20:56:00,
2013-09-21 17:01:00,62.8,60.7,29.55,ESE,119,0.5,2.3,93,0.07,-RA,BKN,0.78,46.6,WeatherDisplay:10.37,2013-09-21 21:01:00,
2013-09-21 17:06:00,62.6,60.5,29.55,SE,140,0.7,2.3,93,0.08,RA,BKN,0.79,42.5,WeatherDisplay:10.37,2013-09-21 21:06:00,
2013-09-21 17:11:00,62.6,60.5,29.55,ESE,112,1.2,3.5,93,0.07,RA,BKN,0.79,44.3,WeatherDisplay:10.37,2013-09-21 21:11:00,
2013-09-21 17:16:00,62.2,60.2,29.55,SE,145,1.8,4.6,93,0.07,RA,BKN,0.80,36.3,WeatherDisplay:10.37,2013-09-21 21:16:00,
2013-09-21 17:21:00,62.2,60.2,29.54,SE,124,1.3,3.6,93,0.07,RA,BKN,0.80,42.5,WeatherDisplay:10.37,2013-09-21 21:21:00,
2013-09-21 17:26:00,62.2,60.2,29.53,SE,133,1.9,3.6,93,0.08,RA,BKN,0.81,37.1,WeatherDisplay:10.37,2013-09-21 21:26:00,
2013-09-21 17:31:00,62.2,60.5,29.53,SE,135,2.5,4.6,94,0.07,RA,BKN,0.81,40.5,WeatherDisplay:10.37,2013-09-21 21:31:00,
2013-09-21 17:36:00,62.2,60.5,29.52,SSE,152,1.5,3.5,94,0.07,RA,BKN,0.81,43.3,WeatherDisplay:10.37,2013-09-21 21:36:00,
2013-09-21 17:41:00,62.4,60.7,29.53,SE,132,1.3,4.6,94,0.06,OVC,BKN,0.81,34.3,WeatherDisplay:10.37,2013-09-21 21:41:00,
2013-09-21 17:46:00,62.4,60.7,29.53,ESE,108,2.0,3.5,94,0.07,RA,BKN,0.82,24.4,WeatherDisplay:10.37,2013-09-21 21:46:00,
2013-09-21 17:51:00,62.4,60.7,29.54,SE,128,0.8,3.5,94,0.06,RA,BKN,0.82,17.6,WeatherDisplay:10.37,2013-09-21 21:51:00,
2013-09-21 17:56:00,62.6,60.8,29.54,SSE,155,0.0,0.0,94,0.06,RA,BKN,0.83,15.7,WeatherDisplay:10.37,2013-09-21 21:56:00,
2013-09-21 18:01:00,62.6,60.8,29.53,SE,137,1.0,2.3,94,0.05,RA,BKN,0.83,16.5,WeatherDisplay:10.37,2013-09-21 22:01:00,
2013-09-21 18:06:00,62.2,60.2,29.53,SE,134,2.2,4.6,93,0.04,RA,BKN,0.83,13.4,WeatherDisplay:10.37,2013-09-21 22:06:00,
2013-09-21 18:11:00,62.2,60.2,29.54,South,189,0.4,1.1,93,0.04,OVC,BKN,0.83,14.1,WeatherDisplay:10.37,2013-09-21 22:11:00,
2013-09-21 18:16:00,62.2,60.2,29.54,ESE,112,0.0,1.1,93,0.04,OVC,BKN,0.83,12.3,WeatherDisplay:10.37,2013-09-21 22:16:00,
2013-09-21 18:21:00,62.2,60.2,29.54,SSE,163,0.2,1.1,93,0.03,OVC,BKN,0.83,10.1,WeatherDisplay:10.37,2013-09-21 22:21:00,
2013-09-21 18:26:00,62.2,60.2,29.54,SSE,165,0.0,0.0,93,0.03,OVC,BKN,0.83,11.4,WeatherDisplay:10.37,2013-09-21 22:26:00,
2013-09-21 18:31:00,62.2,60.2,29.54,SSE,164,0.0,0.0,93,0.02,OVC,BKN,0.83,9.2,WeatherDisplay:10.37,2013-09-21 22:31:00,
2013-09-21 18:36:00,62.1,60.0,29.54,SE,142,1.1,2.3,93,0.02,OVC,BKN,0.83,7.8,WeatherDisplay:10.37,2013-09-21 22:36:00,
2013-09-21 18:41:00,62.2,60.5,29.54,SE,130,0.4,2.3,94,0.02,OVC,BKN,0.83,7.4,WeatherDisplay:10.37,2013-09-21 22:41:00,
2013-09-21 18:46:00,62.2,60.5,29.54,SE,125,0.7,3.0,94,0.01,OVC,BKN,0.83,11.2,WeatherDisplay:10.37,2013-09-21 22:46:00,
2013-09-21 18:51:00,62.2,60.5,29.54,SE,133,0.3,1.1,94,0.01,OVC,BKN,0.83,14.1,WeatherDisplay:10.37,2013-09-21 22:51:00,
2013-09-21 18:56:00,62.2,60.5,29.54,SE,138,0.5,2.3,94,0.02,RA,BKN,0.84,9.1,WeatherDisplay:10.37,2013-09-21 22:56:00,
2013-09-21 19:01:00,62.4,60.7,29.55,SE,139,0.0,0.0,94,0.01,RA,BKN,0.84,7.9,WeatherDisplay:10.37,2013-09-21 23:01:00,
2013-09-21 19:06:00,62.6,60.8,29.54,SE,139,0.0,0.0,94,0.01,BKN,,0.84,7.3,WeatherDisplay:10.37,2013-09-21 23:06:00,
2013-09-21 19:11:00,62.6,60.8,29.54,ESE,119,0.0,1.1,94,0.01,BKN,,0.84,10.8,WeatherDisplay:10.37,2013-09-21 23:11:00,
2013-09-21 19:16:00,62.8,61.0,29.54,ESE,118,0.0,0.0,94,0.01,BKN,,0.84,4.6,WeatherDisplay:10.37,2013-09-21 23:16:00,
2013-09-21 19:21:00,62.8,61.0,29.54,ESE,118,0.0,0.0,94,0.01,BKN,,0.84,0.6,WeatherDisplay:10.37,2013-09-21 23:21:00,
2013-09-21 19:26:00,62.8,60.7,29.54,ESE,119,0.0,0.0,93,0.01,BKN,,0.84,0.0,WeatherDisplay:10.37,2013-09-21 23:26:00,
2013-09-21 19:31:00,62.8,60.7,29.54,ESE,119,0.0,0.0,93,0.01,BKN,,0.84,0.0,WeatherDisplay:10.37,2013-09-21 23:31:00,
2013-09-21 19:36:00,62.8,60.7,29.54,SE,132,0.0,0.0,93,0.01,BKN,,0.84,0.0,WeatherDisplay:10.37,2013-09-21 23:36:00,
2013-09-21 19:41:00,62.6,60.5,29.54,SE,144,0.2,0.0,93,0.01,BKN,,0.84,0.0,WeatherDisplay:10.37,2013-09-21 23:41:00,
2013-09-21 19:46:00,62.4,60.4,29.54,SE,140,0.0,0.0,93,0.01,BKN,,0.84,0.0,WeatherDisplay:10.37,2013-09-21 23:46:00,
2013-09-21 19:51:00,62.4,60.4,29.54,SE,140,0.0,0.0,93,0.01,-RA,BKN,0.84,0.0,WeatherDisplay:10.37,2013-09-21 23:51:00,
2013-09-21 19:56:00,62.4,60.4,29.54,SE,140,0.0,0.0,93,0.01,-RA,BKN,0.84,0.0,WeatherDisplay:10.37,2013-09-21 23:56:00,
2013-09-21 20:01:00,62.4,60.4,29.55,SE,141,0.0,0.0,93,0.00,-RA,BKN,0.84,0.0,WeatherDisplay:10.37,2013-09-22 00:01:00,
2013-09-21 20:06:00,62.1,60.0,29.54,South,173,0.0,0.0,93,0.00,-RA,BKN,0.84,0.0,WeatherDisplay:10.37,2013-09-22 00:06:00,
2013-09-21 20:11:00,61.9,59.8,29.55,SSE,161,0.0,0.0,93,0.00,-RA,BKN,0.84,0.0,WeatherDisplay:10.37,2013-09-22 00:11:00,
2013-09-21 20:16:00,61.9,59.8,29.55,South,176,0.0,0.0,93,0.00,-RA,BKN,0.84,0.0,WeatherDisplay:10.37,2013-09-22 00:16:00,
2013-09-21 20:21:00,61.7,59.7,29.55,South,175,0.0,0.0,93,0.00,-RA,BKN,0.84,0.0,WeatherDisplay:10.37,2013-09-22 00:21:00,
2013-09-21 20:26:00,61.5,59.5,29.55,South,187,0.7,2.8,93,0.00,-RA,BKN,0.84,0.0,WeatherDisplay:10.37,2013-09-22 00:26:00,
2013-09-21 20:31:00,61.3,59.3,29.55,SSW,195,0.8,2.3,93,0.00,-RA,BKN,0.84,0.0,WeatherDisplay:10.37,2013-09-22 00:31:00,
2013-09-21 20:36:00,61.2,59.1,29.55,South,186,2.1,4.6,93,0.00,-RA,BKN,0.84,0.0,WeatherDisplay:10.37,2013-09-22 00:36:00,
2013-09-21 20:41:00,60.6,58.6,29.56,SSW,210,3.6,3.6,93,0.00,-RA,BKN,0.84,0.0,WeatherDisplay:10.37,2013-09-22 00:41:00,
2013-09-21 20:46:00,60.4,58.4,29.57,SW,235,4.1,6.9,93,0.00,-RA,BKN,0.84,0.0,WeatherDisplay:10.37,2013-09-22 00:46:00,
2013-09-21 20:51:00,58.8,55.9,29.58,West,262,9.6,17.3,90,0.00,-RA,BKN,0.84,0.0,WeatherDisplay:10.37,2013-09-22 00:51:00,
2013-09-21 20:56:00,57.7,55.1,29.59,West,279,11.5,16.6,91,0.00,-RA,BKN,0.84,0.0,WeatherDisplay:10.37,2013-09-22 00:56:00,
2013-09-21 21:01:00,57.6,55.6,29.59,West,273,9.1,10.2,93,0.00,-RA,BKN,0.84,0.0,WeatherDisplay:10.37,2013-09-22 01:01:00,
2013-09-21 21:06:00,57.2,55.2,29.59,NW,326,8.9,10.4,93,0.00,BKN,,0.84,0.0,WeatherDisplay:10.37,2013-09-22 01:06:00,
2013-09-21 21:11:00,57.0,55.3,29.59,WNW,299,9.4,15.0,94,0.00,BKN,,0.84,0.0,WeatherDisplay:10.37,2013-09-22 01:11:00,
2013-09-21 21:16:00,57.0,55.3,29.59,NW,311,9.0,10.4,94,0.00,BKN,,0.84,0.0,WeatherDisplay:10.37,2013-09-22 01:16:00,
2013-09-21 21:21:00,57.4,55.7,29.59,WSW,257,7.4,8.1,94,0.00,BKN,,0.84,0.0,WeatherDisplay:10.37,2013-09-22 01:21:00,
2013-09-21 21:26:00,56.8,55.1,29.60,WNW,295,7.8,11.5,94,0.00,BKN,,0.84,0.0,WeatherDisplay:10.37,2013-09-22 01:26:00,
2013-09-21 21:31:00,56.8,54.8,29.61,WNW,303,8.6,15.0,93,0.00,BKN,,0.84,0.0,WeatherDisplay:10.37,2013-09-22 01:31:00,
2013-09-21 21:36:00,56.1,53.5,29.61,WNW,295,8.3,15.0,91,0.00,BKN,,0.84,0.0,WeatherDisplay:10.37,2013-09-22 01:36:00,
2013-09-21 21:41:00,56.1,53.2,29.61,NW,321,5.8,11.5,90,0.00,BKN,,0.84,0.0,WeatherDisplay:10.37,2013-09-22 01:41:00,
2013-09-21 21:46:00,56.1,53.2,29.62,WNW,286,7.1,9.2,90,0.00,BKN,,0.84,0.0,WeatherDisplay:10.37,2013-09-22 01:46:00,
2013-09-21 21:51:00,56.1,53.2,29.61,West,279,2.8,9.2,90,0.00,BKN,,0.84,0.0,WeatherDisplay:10.37,2013-09-22 01:51:00,
2013-09-21 21:56:00,56.1,53.5,29.61,NW,311,2.9,5.8,91,0.00,BKN,,0.84,0.0,WeatherDisplay:10.37,2013-09-22 01:56:00,
2013-09-21 22:01:00,56.1,53.5,29.61,West,279,1.7,5.8,91,0.00,BKN,,0.84,0.0,WeatherDisplay:10.37,2013-09-22 02:01:00,
2013-09-21 22:06:00,56.1,53.5,29.61,NW,304,0.2,4.6,91,0.00,BKN,,0.84,0.0,WeatherDisplay:10.37,2013-09-22 02:06:00,
2013-09-21 22:11:00,55.9,53.4,29.61,NW,315,0.8,4.6,91,0.00,BKN,,0.84,0.0,WeatherDisplay:10.37,2013-09-22 02:11:00,
2013-09-21 22:16:00,56.1,53.8,29.62,WNW,293,0.0,0.0,92,0.00,BKN,,0.84,0.0,WeatherDisplay:10.37,2013-09-22 02:16:00,
2013-09-21 22:21:00,55.9,53.6,29.62,SSW,203,0.0,1.1,92,0.00,BKN,,0.84,0.0,WeatherDisplay:10.37,2013-09-22 02:21:00,
2013-09-21 22:26:00,55.9,53.9,29.62,SW,214,0.2,1.1,93,0.00,BKN,,0.84,0.0,WeatherDisplay:10.37,2013-09-22 02:26:00,
2013-09-21 22:31:00,55.6,53.6,29.62,SSW,202,0.2,1.1,93,0.00,BKN,,0.84,0.0,WeatherDisplay:10.37,2013-09-22 02:31:00,
2013-09-21 22:36:00,55.8,54.1,29.63,NW,306,1.7,4.3,94,0.00,BKN,,0.84,0.0,WeatherDisplay:10.37,2013-09-22 02:36:00,
2013-09-21 22:41:00,55.6,53.6,29.63,WSW,243,0.7,1.1,93,0.00,BKN,,0.84,0.0,WeatherDisplay:10.37,2013-09-22 02:41:00,
2013-09-21 22:46:00,55.4,53.4,29.63,WNW,292,0.6,4.5,93,0.00,BKN,,0.84,0.0,WeatherDisplay:10.37,2013-09-22 02:46:00,
2013-09-21 22:51:00,55.2,53.2,29.63,SSW,202,0.3,1.1,93,0.00,BKN,,0.84,0.0,WeatherDisplay:10.37,2013-09-22 02:51:00,
2013-09-21 22:56:00,55.4,53.1,29.63,WSW,240,3.7,4.6,92,0.00,BKN,,0.84,0.0,WeatherDisplay:10.37,2013-09-22 02:56:00,
2013-09-21 23:01:00,55.6,53.6,29.63,West,260,1.2,3.5,93,0.00,BKN,,0.84,0.0,WeatherDisplay:10.37,2013-09-22 03:01:00,
2013-09-21 23:06:00,55.6,53.3,29.64,WSW,253,1.2,3.5,92,0.00,BKN,,0.84,0.0,WeatherDisplay:10.37,2013-09-22 03:06:00,
2013-09-21 23:12:00,55.6,53.3,29.63,WSW,247,0.4,4.6,92,0.00,BKN,,0.84,0.0,WeatherDisplay:10.37,2013-09-22 03:12:00,
2013-09-21 23:17:00,55.8,52.9,29.63,West,279,1.1,5.5,90,0.00,BKN,,0.84,0.0,WeatherDisplay:10.37,2013-09-22 03:17:00,
2013-09-21 23:22:00,55.8,52.9,29.64,WNW,288,2.0,5.6,90,0.00,BKN,,0.84,0.0,WeatherDisplay:10.37,2013-09-22 03:22:00,
2013-09-21 23:27:00,55.8,52.6,29.64,WSW,244,3.3,5.8,89,0.00,BKN,,0.84,0.0,WeatherDisplay:10.37,2013-09-22 03:27:00,
2013-09-21 23:32:00,55.9,53.0,29.64,West,270,0.3,2.8,90,0.00,BKN,,0.84,0.0,WeatherDisplay:10.37,2013-09-22 03:32:00,
2013-09-21 23:37:00,55.9,53.0,29.64,SW,232,0.1,1.1,90,0.00,BKN,,0.84,0.0,WeatherDisplay:10.37,2013-09-22 03:37:00,
2013-09-21 23:42:00,55.9,53.4,29.64,West,266,0.5,1.8,91,0.00,BKN,,0.84,0.0,WeatherDisplay:10.37,2013-09-22 03:42:00,
2013-09-21 23:47:00,55.9,53.4,29.64,SSW,210,0.0,0.0,91,0.00,BKN,,0.84,0.0,WeatherDisplay:10.37,2013-09-22 03:47:00,
2013-09-21 23:52:00,55.9,53.4,29.64,WNW,287,1.1,4.6,91,0.00,BKN,,0.84,0.0,WeatherDisplay:10.37,2013-09-22 03:52:00,
2013-09-21 23:57:00,55.9,53.4,29.64,WNW,296,0.8,4.6,91,0.00,BKN,,0.84,0.0,WeatherDisplay:10.37,2013-09-22 03:57:00,